Time;durP1;ratioP1;P1;durP2;ratioP2;P2;SDS_P1;SDS_P2;PMS_P1;PMS_P2;Temp;Humidity;BMP_temperature;BMP_pressure;BME280_temperature;BME280_humidity;BME280_pressure;Samples;Min_cycle;Max_cycle;Signal;HPM_P1;HPM_P2
2021/10/16 00:00:40;;;;;;;6.90;6.27;;;12.20;89.40;;;;;;5017420;28;20275;-86
2021/10/16 00:03:06;;;;;;;7.53;6.83;;;12.30;89.80;;;;;;5032646;28;20685;-87
2021/10/16 00:05:32;;;;;;;7.83;7.13;;;12.20;89.60;;;;;;5051059;28;20227;-86
2021/10/16 00:07:58;;;;;;;6.80;6.20;;;12.30;89.80;;;;;;5020321;28;20277;-86
2021/10/16 00:10:23;;;;;;;7.87;6.13;;;12.30;90.40;;;;;;5029144;28;20653;-85
2021/10/16 00:12:49;;;;;;;6.00;5.50;;;12.10;90.50;;;;;;5033459;28;20216;-86
2021/10/16 00:15:15;;;;;;;7.07;6.50;;;12.20;90.10;;;;;;5051983;28;20523;-87
2021/10/16 00:17:41;;;;;;;7.40;6.80;;;12.10;90.40;;;;;;5049936;28;20211;-87
2021/10/16 00:20:10;;;;;;;7.20;6.60;;;12.20;90.40;;;;;;5032824;28;20284;-87
2021/10/16 00:22:35;;;;;;;7.00;6.30;;;12.20;90.20;;;;;;5047282;28;20301;-87
2021/10/16 00:25:01;;;;;;;6.93;6.43;;;12.20;89.70;;;;;;5052271;28;20279;-87
2021/10/16 00:27:27;;;;;;;7.20;6.50;;;12.20;89.60;;;;;;5049490;28;20293;-87
2021/10/16 00:29:52;;;;;;;7.33;6.63;;;12.10;90.70;;;;;;5047101;28;20592;-87
2021/10/16 00:32:18;;;;;;;7.20;6.60;;;12.00;91.20;;;;;;5051900;28;20501;-85
2021/10/16 00:34:44;;;;;;;7.20;6.60;;;12.10;90.50;;;;;;5024684;28;20301;-86
2021/10/16 00:37:10;;;;;;;7.43;6.77;;;12.20;90.00;;;;;;5038791;28;20208;-87
2021/10/16 00:39:35;;;;;;;7.20;6.60;;;12.20;89.90;;;;;;5040936;28;20229;-87
2021/10/16 00:42:01;;;;;;;6.80;6.13;;;12.10;90.00;;;;;;5033660;28;20200;-87
2021/10/16 00:44:27;;;;;;;7.30;6.60;;;12.20;89.50;;;;;;5049006;28;20233;-86
2021/10/16 00:46:58;;;;;;;7.00;6.37;;;12.30;89.30;;;;;;5033765;28;20250;-87
2021/10/16 00:49:28;;;;;;;7.23;6.63;;;12.40;88.80;;;;;;5038139;28;20210;-86
2021/10/16 00:51:55;;;;;;;7.47;6.77;;;12.40;88.40;;;;;;5040911;28;20199;-88
2021/10/16 00:54:21;;;;;;;7.27;6.67;;;12.40;88.70;;;;;;5046845;28;20192;-86
2021/10/16 00:56:50;;;;;;;7.30;6.70;;;12.40;88.70;;;;;;5052042;28;20188;-87
2021/10/16 00:59:21;;;;;;;6.97;6.37;;;12.40;88.50;;;;;;5028455;28;20195;-88
2021/10/16 01:01:47;;;;;;;7.50;6.90;;;12.50;88.30;;;;;;5048997;28;20551;-87
2021/10/16 01:04:13;;;;;;;7.57;6.87;;;12.40;88.20;;;;;;5051541;28;20243;-86
2021/10/16 01:06:40;;;;;;;6.60;6.10;;;12.40;89.30;;;;;;5035511;28;20216;-85
2021/10/16 01:09:09;;;;;;;7.13;6.53;;;12.40;88.40;;;;;;5043777;28;20218;-86
2021/10/16 01:11:40;;;;;;;7.90;7.10;;;12.40;88.40;;;;;;5023936;28;20221;-87
2021/10/16 01:14:10;;;;;;;7.50;6.80;;;12.30;89.40;;;;;;5035173;28;20208;-87
2021/10/16 01:16:38;;;;;;;6.87;6.27;;;12.40;88.80;;;;;;5052286;28;20700;-86
2021/10/16 01:19:08;;;;;;;6.07;5.57;;;12.40;89.10;;;;;;5051653;28;20664;-85
2021/10/16 01:21:34;;;;;;;6.93;6.33;;;12.30;89.80;;;;;;5052716;28;20205;-86
2021/10/16 01:24:00;;;;;;;6.53;6.03;;;12.20;90.00;;;;;;5019262;28;20222;-87
2021/10/16 01:26:28;;;;;;;7.30;6.63;;;12.20;90.30;;;;;;5044966;28;20255;-86
2021/10/16 01:28:59;;;;;;;7.43;6.83;;;12.20;90.40;;;;;;5048257;28;20220;-87
2021/10/16 01:31:26;;;;;;;6.83;6.23;;;12.20;90.10;;;;;;5036794;28;20576;-86
2021/10/16 01:33:52;;;;;;;7.57;6.83;;;12.20;90.30;;;;;;5037396;28;20296;-87
2021/10/16 01:36:18;;;;;;;8.23;6.73;;;12.20;90.50;;;;;;5051627;28;20201;-86
2021/10/16 01:38:44;;;;;;;7.33;6.60;;;12.10;90.70;;;;;;5058347;28;20194;-86
2021/10/16 01:41:09;;;;;;;7.10;6.50;;;12.10;90.70;;;;;;5068031;28;20193;-86
2021/10/16 01:43:35;;;;;;;7.13;6.53;;;12.10;91.00;;;;;;5063731;28;20654;-87
2021/10/16 01:46:01;;;;;;;7.37;6.67;;;12.10;90.90;;;;;;5043202;28;20204;-86
2021/10/16 01:48:27;;;;;;;7.33;6.73;;;12.20;90.70;;;;;;5065210;28;20285;-86
2021/10/16 01:50:54;;;;;;;6.67;6.07;;;12.20;90.50;;;;;;5035718;28;20194;-87
2021/10/16 01:53:21;;;;;;;7.97;7.30;;;12.20;91.00;;;;;;5049047;28;20250;-86
2021/10/16 01:55:47;;;;;;;7.30;6.70;;;12.10;91.50;;;;;;5031616;28;20193;-85
2021/10/16 01:58:15;;;;;;;7.57;6.93;;;12.00;91.60;;;;;;5051860;28;20191;-87
2021/10/16 02:00:45;;;;;;;7.10;6.50;;;12.00;92.00;;;;;;5031742;28;20199;-86
2021/10/16 02:03:12;;;;;;;8.87;8.07;;;12.00;91.60;;;;;;5048233;28;20215;-87
2021/10/16 02:05:42;;;;;;;9.30;8.40;;;12.00;91.40;;;;;;5050650;28;20580;-87
2021/10/16 02:08:09;;;;;;;10.87;9.87;;;12.00;91.80;;;;;;5049316;28;20212;-86
2021/10/16 02:10:34;;;;;;;9.27;8.30;;;12.00;91.90;;;;;;5051627;28;20188;-86
2021/10/16 02:13:00;;;;;;;9.77;8.90;;;12.00;91.40;;;;;;5052348;28;20244;-86
2021/10/16 02:15:26;;;;;;;10.90;10.00;;;12.10;91.40;;;;;;5054366;28;20182;-87
2021/10/16 02:17:52;;;;;;;12.47;11.33;;;12.10;91.10;;;;;;5049200;28;20264;-86
2021/10/16 02:20:18;;;;;;;11.20;10.07;;;12.10;91.80;;;;;;5051222;28;20912;-86
2021/10/16 02:22:43;;;;;;;11.97;10.97;;;12.10;91.90;;;;;;5036446;28;20266;-86
2021/10/16 02:25:09;;;;;;;11.53;10.43;;;12.10;91.20;;;;;;5042533;28;20194;-86
2021/10/16 02:27:35;;;;;;;10.97;10.07;;;12.00;91.60;;;;;;5042417;28;20306;-87
2021/10/16 02:30:00;;;;;;;12.13;11.03;;;12.10;91.60;;;;;;5043778;28;20216;-87
2021/10/16 02:32:26;;;;;;;11.67;10.67;;;12.00;91.70;;;;;;5035684;28;20266;-86
2021/10/16 02:34:52;;;;;;;10.87;9.87;;;11.90;92.20;;;;;;5051724;28;20687;-87
2021/10/16 02:37:17;;;;;;;11.23;10.03;;;11.80;92.30;;;;;;5034873;28;20197;-86
2021/10/16 02:39:43;;;;;;;10.03;9.20;;;11.80;92.50;;;;;;5035908;28;20581;-87
2021/10/16 02:42:09;;;;;;;9.50;8.70;;;11.80;92.30;;;;;;5046395;28;20330;-87
2021/10/16 02:44:34;;;;;;;10.13;9.33;;;11.80;91.50;;;;;;5051457;28;20273;-86
2021/10/16 02:47:00;;;;;;;10.73;9.87;;;11.80;91.40;;;;;;5037052;28;20193;-87
2021/10/16 02:49:26;;;;;;;10.23;9.33;;;11.80;91.50;;;;;;5052057;28;20219;-85
2021/10/16 02:51:52;;;;;;;8.90;8.07;;;11.70;91.40;;;;;;5032551;28;20196;-85
2021/10/16 02:54:18;;;;;;;9.23;8.43;;;11.70;90.70;;;;;;5052023;28;20192;-86
2021/10/16 02:56:43;;;;;;;8.67;7.97;;;11.70;90.90;;;;;;5052033;28;20193;-87
2021/10/16 02:59:09;;;;;;;8.63;7.90;;;11.80;90.80;;;;;;5049584;28;20266;-86
2021/10/16 03:01:35;;;;;;;9.30;8.40;;;11.80;90.70;;;;;;5053038;28;20238;-86
2021/10/16 03:04:01;;;;;;;10.47;9.67;;;11.90;90.60;;;;;;5051235;28;20212;-87
2021/10/16 03:06:26;;;;;;;12.07;11.03;;;11.80;91.10;;;;;;5045302;28;20192;-86
2021/10/16 03:08:52;;;;;;;11.73;10.63;;;11.70;91.50;;;;;;5051898;28;20234;-87
2021/10/16 03:11:18;;;;;;;12.13;11.10;;;11.70;91.80;;;;;;5050609;28;20198;-87
2021/10/16 03:13:43;;;;;;;14.97;13.47;;;11.60;92.10;;;;;;5017569;28;20342;-87
2021/10/16 03:16:10;;;;;;;16.20;14.63;;;11.60;92.70;;;;;;5051695;28;20193;-86
2021/10/16 03:18:35;;;;;;;16.40;14.77;;;11.60;93.10;;;;;;5052357;28;20184;-86
2021/10/16 03:21:01;;;;;;;18.37;16.67;;;11.50;93.40;;;;;;5048339;28;20206;-87
2021/10/16 03:23:27;;;;;;;18.13;16.53;;;11.40;93.60;;;;;;5031591;28;20229;-86
2021/10/16 03:25:53;;;;;;;18.37;16.60;;;11.40;93.80;;;;;;5051831;28;20199;-87
2021/10/16 03:28:18;;;;;;;20.87;18.77;;;11.30;94.00;;;;;;5041198;28;20223;-86
2021/10/16 03:30:44;;;;;;;19.77;17.83;;;11.20;94.70;;;;;;5042167;28;20192;-87
2021/10/16 03:33:10;;;;;;;20.47;18.37;;;11.20;94.70;;;;;;5049020;28;20211;-86
2021/10/16 03:35:35;;;;;;;19.53;17.63;;;11.30;94.80;;;;;;5032325;28;20214;-86
2021/10/16 03:38:01;;;;;;;19.57;17.77;;;11.20;94.60;;;;;;5029248;28;20202;-86
2021/10/16 03:40:27;;;;;;;17.60;15.80;;;11.20;94.80;;;;;;5049066;28;20202;-87
2021/10/16 03:42:53;;;;;;;18.87;17.07;;;11.20;95.30;;;;;;5049911;28;20564;-87
2021/10/16 03:45:20;;;;;;;19.10;17.20;;;11.20;95.10;;;;;;5032417;28;20209;-87
2021/10/16 03:47:46;;;;;;;19.03;17.00;;;11.20;94.90;;;;;;5049039;28;20187;-87
2021/10/16 03:50:12;;;;;;;18.67;16.70;;;11.10;95.40;;;;;;5032167;28;20216;-87
2021/10/16 03:52:38;;;;;;;18.83;16.70;;;11.10;95.30;;;;;;5050994;28;20261;-86
2021/10/16 03:55:04;;;;;;;18.93;17.10;;;11.20;95.20;;;;;;5010811;28;20207;-87
2021/10/16 03:57:30;;;;;;;16.47;13.83;;;11.10;95.00;;;;;;5037082;28;20215;-87
2021/10/16 03:59:56;;;;;;;19.37;17.43;;;11.20;95.10;;;;;;5039493;28;20192;-86
2021/10/16 04:02:22;;;;;;;19.93;17.67;;;11.20;94.80;;;;;;5045150;28;20215;-88
2021/10/16 04:04:47;;;;;;;20.07;18.17;;;11.20;94.80;;;;;;5050223;28;20787;-86
2021/10/16 04:07:13;;;;;;;19.03;17.13;;;11.10;95.20;;;;;;5052686;28;20214;-87
2021/10/16 04:09:39;;;;;;;19.77;17.83;;;11.20;95.60;;;;;;5047231;28;20264;-86
2021/10/16 04:12:05;;;;;;;19.47;17.43;;;11.00;95.60;;;;;;5047834;28;20193;-86
2021/10/16 04:14:30;;;;;;;21.40;18.43;;;11.00;95.80;;;;;;5050809;28;20194;-87
2021/10/16 04:16:56;;;;;;;19.97;18.07;;;11.00;96.20;;;;;;5049940;28;20207;-87
2021/10/16 04:19:22;;;;;;;24.27;18.77;;;10.80;96.80;;;;;;5048905;28;20275;-86
2021/10/16 04:21:48;;;;;;;20.20;18.20;;;10.80;97.20;;;;;;5050766;28;20254;-86
2021/10/16 04:24:14;;;;;;;21.00;18.90;;;10.70;97.90;;;;;;5034086;28;20254;-87
2021/10/16 04:26:39;;;;;;;20.93;18.77;;;10.70;98.00;;;;;;5068091;28;20220;-84
2021/10/16 04:29:05;;;;;;;21.50;19.30;;;10.60;97.80;;;;;;5061052;28;20209;-85
2021/10/16 04:31:31;;;;;;;18.90;17.03;;;10.60;97.40;;;;;;5069747;28;20177;-85
2021/10/16 04:33:56;;;;;;;20.07;18.07;;;10.60;97.70;;;;;;5066856;28;20209;-85
2021/10/16 04:36:22;;;;;;;21.47;19.27;;;10.70;97.30;;;;;;5041307;28;20200;-84
2021/10/16 04:38:49;;;;;;;20.57;18.53;;;10.70;97.20;;;;;;5059623;28;20582;-87
2021/10/16 04:41:16;;;;;;;20.67;18.63;;;10.70;97.10;;;;;;5034329;28;20197;-86
2021/10/16 04:43:43;;;;;;;21.33;19.10;;;10.70;97.30;;;;;;5050451;28;20243;-87
2021/10/16 04:46:09;;;;;;;22.73;19.27;;;10.60;97.70;;;;;;5034399;28;20227;-87
2021/10/16 04:48:43;;;;;;;22.27;20.07;;;10.60;97.80;;;;;;5051155;28;20577;-86
2021/10/16 04:51:10;;;;;;;21.63;19.33;;;10.60;97.90;;;;;;5046609;28;20318;-84
2021/10/16 04:53:36;;;;;;;20.60;18.40;;;10.60;97.80;;;;;;5069603;28;20207;-85
2021/10/16 04:56:02;;;;;;;20.03;18.03;;;10.60;97.70;;;;;;5052127;28;20176;-85
2021/10/16 04:58:28;;;;;;;21.20;19.10;;;10.70;97.60;;;;;;5060396;28;20197;-85
2021/10/16 05:00:53;;;;;;;22.47;19.43;;;10.70;97.10;;;;;;5044619;28;20591;-85
2021/10/16 05:03:19;;;;;;;20.87;18.67;;;10.70;97.10;;;;;;5050748;28;20220;-86
2021/10/16 05:05:45;;;;;;;20.93;18.73;;;10.70;97.20;;;;;;5040348;28;20201;-87
2021/10/16 05:08:11;;;;;;;20.07;18.00;;;10.60;97.30;;;;;;5040201;28;20419;-87
2021/10/16 05:10:37;;;;;;;20.70;18.37;;;10.60;97.50;;;;;;5032164;28;20522;-87
2021/10/16 05:13:03;;;;;;;20.30;18.23;;;10.60;97.30;;;;;;5030357;28;20211;-85
2021/10/16 05:15:28;;;;;;;17.77;15.87;;;10.60;97.60;;;;;;5048839;28;20662;-87
2021/10/16 05:17:54;;;;;;;19.93;17.83;;;10.70;97.00;;;;;;5050854;28;20618;-86
2021/10/16 05:20:20;;;;;;;20.43;18.33;;;10.80;96.10;;;;;;5051376;28;20228;-87
2021/10/16 05:22:47;;;;;;;20.33;18.13;;;10.90;95.80;;;;;;5048580;28;20245;-86
2021/10/16 05:25:14;;;;;;;22.27;19.97;;;10.80;96.60;;;;;;5032317;28;20192;-84
2021/10/16 05:27:39;;;;;;;20.80;18.70;;;10.70;96.40;;;;;;5034067;28;20208;-86
2021/10/16 05:30:07;;;;;;;23.50;17.83;;;10.60;97.30;;;;;;5027716;28;20330;-86
2021/10/16 05:32:33;;;;;;;19.93;17.83;;;10.40;97.60;;;;;;5048437;28;20209;-86
2021/10/16 05:34:59;;;;;;;21.73;19.53;;;10.50;97.90;;;;;;5050138;28;20191;-86
2021/10/16 05:37:24;;;;;;;21.20;18.80;;;10.30;98.10;;;;;;5049741;28;20293;-88
2021/10/16 05:39:50;;;;;;;21.60;18.07;;;10.30;98.30;;;;;;5048754;28;20184;-86
2021/10/16 05:42:16;;;;;;;23.13;20.63;;;10.30;98.60;;;;;;5032470;28;20236;-85
2021/10/16 05:44:42;;;;;;;22.37;18.60;;;10.20;98.70;;;;;;5054158;28;20188;-85
2021/10/16 05:47:07;;;;;;;22.40;19.93;;;10.30;98.80;;;;;;5052357;28;20196;-87
2021/10/16 05:49:33;;;;;;;23.40;19.53;;;10.30;98.50;;;;;;5052511;28;20707;-85
2021/10/16 05:51:59;;;;;;;27.10;20.17;;;10.40;98.20;;;;;;5054902;28;20606;-87
2021/10/16 05:54:25;;;;;;;23.63;21.13;;;10.20;98.40;;;;;;5050514;28;20352;-87
2021/10/16 05:56:51;;;;;;;24.57;19.83;;;10.30;99.40;;;;;;5052061;28;20855;-87
2021/10/16 05:59:17;;;;;;;24.87;20.73;;;10.20;98.80;;;;;;5021638;28;20710;-84
2021/10/16 06:01:43;;;;;;;22.80;20.00;;;10.20;98.80;;;;;;5059582;28;20196;-86
2021/10/16 06:04:08;;;;;;;22.73;19.53;;;10.10;99.40;;;;;;5058282;28;20211;-86
2021/10/16 06:06:35;;;;;;;27.47;20.23;;;10.10;99.60;;;;;;5031256;28;20192;-85
2021/10/16 06:09:00;;;;;;;25.37;20.30;;;10.10;99.20;;;;;;5032288;28;20739;-86
2021/10/16 06:11:26;;;;;;;23.47;21.00;;;10.20;99.30;;;;;;5049957;28;20184;-85
2021/10/16 06:13:52;;;;;;;26.07;20.37;;;10.10;99.20;;;;;;5033506;28;20208;-83
2021/10/16 06:16:18;;;;;;;25.47;21.47;;;10.10;99.40;;;;;;5052742;28;20199;-85
2021/10/16 06:18:44;;;;;;;21.97;19.13;;;10.10;99.70;;;;;;5051964;28;20214;-85
2021/10/16 06:21:11;;;;;;;26.60;21.53;;;10.20;99.30;;;;;;5050140;28;20203;-84
2021/10/16 06:23:37;;;;;;;27.87;21.70;;;10.10;99.90;;;;;;5031526;28;20243;-85
2021/10/16 06:26:03;;;;;;;27.17;21.47;;;10.20;99.60;;;;;;5028611;28;20599;-84
2021/10/16 06:28:29;;;;;;;27.00;21.37;;;10.10;99.50;;;;;;5044749;28;20216;-85
2021/10/16 06:30:55;;;;;;;24.83;20.67;;;10.20;99.50;;;;;;5027093;28;20246;-84
2021/10/16 06:33:21;;;;;;;25.73;21.40;;;10.30;99.40;;;;;;5047529;28;20269;-84
2021/10/16 06:35:47;;;;;;;25.93;19.47;;;10.30;99.00;;;;;;5050694;28;20189;-84
2021/10/16 06:38:13;;;;;;;22.47;19.00;;;10.40;98.40;;;;;;5051194;28;20189;-85
2021/10/16 06:40:38;;;;;;;26.03;21.17;;;10.40;98.40;;;;;;5034628;28;20184;-84
2021/10/16 06:43:04;;;;;;;25.97;20.30;;;10.40;98.40;;;;;;5032718;28;20236;-85
2021/10/16 06:45:30;;;;;;;30.10;21.00;;;10.40;97.90;;;;;;5031098;28;20275;-84
2021/10/16 06:47:55;;;;;;;25.00;20.90;;;10.40;98.00;;;;;;5052841;28;20187;-86
2021/10/16 06:50:21;;;;;;;23.33;20.40;;;10.50;98.00;;;;;;5053679;28;20229;-86
2021/10/16 06:52:47;;;;;;;26.10;20.37;;;10.60;97.60;;;;;;5056503;28;22251;-83
2021/10/16 06:55:13;;;;;;;23.20;19.90;;;10.60;97.30;;;;;;5039079;28;20196;-84
2021/10/16 06:57:38;;;;;;;26.83;20.97;;;10.60;97.30;;;;;;5055053;28;20288;-85
2021/10/16 07:00:06;;;;;;;27.97;20.73;;;10.60;97.10;;;;;;5051243;28;20237;-85
2021/10/16 07:02:31;;;;;;;22.07;19.30;;;10.70;96.70;;;;;;5045256;28;20222;-85
2021/10/16 07:04:57;;;;;;;24.63;20.47;;;10.70;96.50;;;;;;5058831;28;20200;-85
2021/10/16 07:07:23;;;;;;;24.77;22.07;;;10.70;96.30;;;;;;5038331;28;20189;-84
2021/10/16 07:09:49;;;;;;;25.07;21.27;;;10.60;96.30;;;;;;5032589;28;20227;-85
2021/10/16 07:12:15;;;;;;;25.20;22.37;;;10.60;96.70;;;;;;5056600;28;20387;-86
2021/10/16 07:14:40;;;;;;;25.97;21.47;;;10.60;97.10;;;;;;5057050;28;20221;-85
2021/10/16 07:17:06;;;;;;;25.87;21.63;;;10.60;96.90;;;;;;5051897;28;20206;-87
2021/10/16 07:19:33;;;;;;;24.53;21.10;;;10.60;97.10;;;;;;5033756;28;20662;-85
2021/10/16 07:22:00;;;;;;;27.07;21.33;;;10.60;97.10;;;;;;5052282;28;20191;-85
2021/10/16 07:24:26;;;;;;;25.83;20.43;;;10.60;97.50;;;;;;5049874;28;20256;-86
2021/10/16 07:26:54;;;;;;;28.73;22.57;;;10.50;97.50;;;;;;5041496;28;20267;-86
2021/10/16 07:29:22;;;;;;;27.80;21.40;;;10.50;97.80;;;;;;5057698;28;20223;-85
2021/10/16 07:31:51;;;;;;;28.90;22.77;;;10.30;98.40;;;;;;5052367;28;20234;-84
2021/10/16 07:34:18;;;;;;;28.20;21.90;;;10.40;98.70;;;;;;5041543;28;20565;-85
2021/10/16 07:36:45;;;;;;;28.47;23.90;;;10.40;98.60;;;;;;5061273;28;20188;-85
2021/10/16 07:39:12;;;;;;;32.53;26.67;;;10.50;98.30;;;;;;5059387;28;20192;-88
2021/10/16 07:41:38;;;;;;;31.03;24.13;;;10.50;98.10;;;;;;5045445;28;20189;-86
2021/10/16 07:44:05;;;;;;;36.13;26.37;;;10.50;98.40;;;;;;5057959;28;20220;-85
2021/10/16 07:46:31;;;;;;;32.10;24.03;;;10.60;97.80;;;;;;5033809;28;20198;-85
2021/10/16 07:48:57;;;;;;;32.67;26.50;;;10.70;97.60;;;;;;5053223;28;20217;-85
2021/10/16 07:51:23;;;;;;;30.73;24.20;;;10.70;97.70;;;;;;5059843;28;20180;-85
2021/10/16 07:53:49;;;;;;;27.70;22.50;;;10.70;97.50;;;;;;5057146;28;20291;-83
2021/10/16 07:56:15;;;;;;;31.67;22.93;;;10.60;97.40;;;;;;5052955;28;20191;-86
2021/10/16 07:58:41;;;;;;;30.90;26.10;;;10.60;98.10;;;;;;5055199;28;20354;-86
2021/10/16 08:01:08;;;;;;;31.77;24.40;;;10.60;98.20;;;;;;5041058;28;20640;-87
2021/10/16 08:03:33;;;;;;;30.03;23.47;;;10.70;98.10;;;;;;5053885;28;20502;-87
2021/10/16 08:06:00;;;;;;;29.40;21.80;;;10.70;97.80;;;;;;5055124;28;20216;-87
2021/10/16 08:08:27;;;;;;;31.60;24.43;;;10.70;97.30;;;;;;5056344;28;20197;-86
2021/10/16 08:10:53;;;;;;;36.53;29.70;;;10.70;97.70;;;;;;5039513;28;20209;-86
2021/10/16 08:13:19;;;;;;;38.10;29.37;;;10.80;97.40;;;;;;5047603;28;20288;-85
2021/10/16 08:15:45;;;;;;;31.93;26.50;;;10.80;97.00;;;;;;5046771;28;20282;-86
2021/10/16 08:18:11;;;;;;;34.17;26.43;;;10.90;96.40;;;;;;5052468;28;20884;-86
2021/10/16 08:20:37;;;;;;;32.07;21.90;;;10.90;96.70;;;;;;5053233;28;20225;-86
2021/10/16 08:23:05;;;;;;;23.17;19.57;;;11.00;96.40;;;;;;5037948;28;20217;-86
2021/10/16 08:25:31;;;;;;;25.63;21.73;;;11.00;95.00;;;;;;5055692;28;20284;-87
2021/10/16 08:27:58;;;;;;;22.13;19.30;;;11.10;94.60;;;;;;5058100;28;20262;-86
2021/10/16 08:30:24;;;;;;;23.47;19.43;;;11.10;92.90;;;;;;5055465;28;20209;-85
2021/10/16 08:32:49;;;;;;;21.60;18.57;;;11.10;93.60;;;;;;5057911;28;20211;-87
2021/10/16 08:35:15;;;;;;;26.83;20.00;;;11.10;93.60;;;;;;5024730;28;20204;-88
2021/10/16 08:37:41;;;;;;;28.03;20.93;;;11.10;93.90;;;;;;5030497;28;20673;-89
2021/10/16 08:40:08;;;;;;;30.57;22.60;;;11.10;94.40;;;;;;5034478;28;20192;-87
2021/10/16 08:42:35;;;;;;;26.83;20.13;;;11.10;94.30;;;;;;5057318;28;20288;-88
2021/10/16 08:45:04;;;;;;;23.00;19.40;;;11.10;94.60;;;;;;5053682;28;20759;-86
2021/10/16 08:47:36;;;;;;;25.70;20.80;;;11.20;94.40;;;;;;5050706;28;20215;-85
2021/10/16 08:50:11;;;;;;;27.23;22.03;;;11.40;93.40;;;;;;5057249;28;20210;-86
2021/10/16 08:52:38;;;;;;;26.57;21.00;;;11.40;92.70;;;;;;5055833;28;20236;-87
2021/10/16 08:55:06;;;;;;;29.40;23.03;;;11.50;92.90;;;;;;5056306;28;20189;-88
2021/10/16 08:57:34;;;;;;;26.60;20.57;;;11.50;91.90;;;;;;5054092;28;20207;-86
2021/10/16 09:00:38;;;;;;;25.57;20.00;;;11.60;91.90;;;;;;5036295;28;20201;-87
2021/10/16 09:03:19;;;;;;;25.37;20.93;;;11.60;91.10;;;;;;5036760;28;20267;-87
2021/10/16 09:06:06;;;;;;;27.43;21.40;;;11.60;90.90;;;;;;5046270;28;20191;-87
2021/10/16 09:08:43;;;;;;;24.37;20.07;;;11.60;91.10;;;;;;5051422;28;20209;-84
2021/10/16 09:11:45;;;;;;;24.83;20.63;;;11.60;90.70;;;;;;5049230;28;20209;-87
2021/10/16 09:14:13;;;;;;;23.43;19.53;;;11.60;90.90;;;;;;5004275;28;20317;-86
2021/10/16 09:16:47;;;;;;;22.23;19.83;;;11.60;90.90;;;;;;5050002;28;20206;-84
2021/10/16 09:19:40;;;;;;;25.43;21.57;;;11.70;91.00;;;;;;5036078;28;20211;-85
2021/10/16 09:22:11;;;;;;;26.47;22.03;;;11.80;90.00;;;;;;5048698;28;20241;-85
2021/10/16 09:24:38;;;;;;;26.00;20.00;;;12.00;89.80;;;;;;5075958;28;20209;-85
2021/10/16 09:27:03;;;;;;;23.40;20.93;;;12.00;89.30;;;;;;5049934;28;20196;-85
2021/10/16 09:29:32;;;;;;;25.00;19.97;;;12.00;88.80;;;;;;5050752;28;20832;-84
2021/10/16 09:32:08;;;;;;;23.20;19.27;;;12.10;88.80;;;;;;5051768;28;20197;-87
2021/10/16 09:34:36;;;;;;;21.37;17.60;;;12.00;88.90;;;;;;5054660;28;20213;-87
2021/10/16 09:37:06;;;;;;;23.30;19.30;;;12.00;89.30;;;;;;5049901;28;20699;-86
2021/10/16 09:39:33;;;;;;;22.43;17.53;;;12.10;88.50;;;;;;5051792;28;20193;-84
2021/10/16 09:41:59;;;;;;;24.40;19.07;;;12.00;89.10;;;;;;5050616;28;20195;-84
2021/10/16 09:44:27;;;;;;;23.53;19.20;;;12.10;88.50;;;;;;5050747;28;20203;-85
2021/10/16 09:47:15;;;;;;;22.07;18.60;;;12.00;88.70;;;;;;5047950;28;20223;-84
2021/10/16 09:49:44;;;;;;;24.67;18.83;;;12.10;88.20;;;;;;5038978;28;20214;-85
2021/10/16 09:52:14;;;;;;;23.87;19.20;;;12.30;88.10;;;;;;5051720;28;20187;-86
2021/10/16 09:54:45;;;;;;;21.30;18.63;;;12.30;88.00;;;;;;5049973;28;20198;-86
2021/10/16 09:57:13;;;;;;;24.70;18.53;;;12.30;88.10;;;;;;5040618;28;20195;-87
2021/10/16 09:59:41;;;;;;;25.07;18.63;;;12.30;87.90;;;;;;5044950;28;20195;-86
2021/10/16 10:02:08;;;;;;;22.20;19.80;;;12.30;87.50;;;;;;5032910;28;20202;-85
2021/10/16 10:04:40;;;;;;;21.67;19.37;;;12.30;88.10;;;;;;5048412;28;20191;-85
2021/10/16 10:07:07;;;;;;;24.43;18.70;;;12.20;88.30;;;;;;5051020;28;20586;-85
2021/10/16 10:09:34;;;;;;;20.83;18.27;;;12.30;88.20;;;;;;5058854;28;20216;-86
2021/10/16 10:12:02;;;;;;;24.00;19.30;;;12.20;88.00;;;;;;5055924;28;20206;-84
2021/10/16 10:14:28;;;;;;;22.70;18.83;;;12.10;88.70;;;;;;5023404;28;20600;-84
2021/10/16 10:17:02;;;;;;;22.47;18.90;;;12.10;88.50;;;;;;5050081;28;20715;-85
2021/10/16 10:19:29;;;;;;;22.90;19.23;;;12.20;88.30;;;;;;5049370;28;20709;-86
2021/10/16 10:21:56;;;;;;;23.17;20.13;;;12.30;88.00;;;;;;5047248;28;20191;-85
2021/10/16 10:24:38;;;;;;;22.70;18.43;;;12.40;87.90;;;;;;5052428;28;20195;-84
2021/10/16 10:27:09;;;;;;;29.20;21.13;;;12.40;86.90;;;;;;5040176;28;20191;-85
2021/10/16 10:29:38;;;;;;;23.50;19.77;;;12.30;87.40;;;;;;5048032;28;20221;-84
2021/10/16 10:32:14;;;;;;;23.60;19.57;;;12.10;89.50;;;;;;5028979;28;20195;-85
2021/10/16 10:34:42;;;;;;;23.40;18.10;;;12.10;88.70;;;;;;5048419;28;20284;-84
2021/10/16 10:37:13;;;;;;;23.43;19.13;;;12.20;88.40;;;;;;5035784;28;20199;-85
2021/10/16 10:39:41;;;;;;;24.80;20.43;;;12.10;88.80;;;;;;5050940;28;20299;-85
2021/10/16 10:42:13;;;;;;;20.83;18.47;;;12.20;88.20;;;;;;5048699;28;20195;-84
2021/10/16 10:44:44;;;;;;;22.43;18.50;;;12.30;88.50;;;;;;5044764;28;20208;-85
2021/10/16 10:47:25;;;;;;;23.17;19.53;;;12.20;88.20;;;;;;5033938;28;20234;-85
2021/10/16 10:49:53;;;;;;;23.83;21.00;;;12.20;88.20;;;;;;5032503;28;20909;-85
2021/10/16 10:52:22;;;;;;;25.27;20.63;;;12.30;87.90;;;;;;5051090;28;20226;-84
2021/10/16 10:55:05;;;;;;;22.50;20.07;;;12.40;87.50;;;;;;5052112;28;20737;-82
2021/10/16 10:57:52;;;;;;;22.70;19.77;;;12.40;86.80;;;;;;5049571;28;20697;-84
2021/10/16 11:00:40;;;;;;;23.07;19.57;;;12.50;87.00;;;;;;5048094;28;20190;-84
2021/10/16 11:03:27;;;;;;;24.10;21.57;;;12.60;86.00;;;;;;5024228;28;20250;-84
2021/10/16 11:05:55;;;;;;;23.17;20.77;;;12.60;86.10;;;;;;5041224;28;20199;-84
2021/10/16 11:08:21;;;;;;;27.30;21.67;;;12.70;85.70;;;;;;5040802;28;20743;-83
2021/10/16 11:10:47;;;;;;;27.83;23.40;;;12.70;86.00;;;;;;5050175;28;20202;-83
2021/10/16 11:13:15;;;;;;;25.97;22.57;;;12.60;85.80;;;;;;5030773;28;20219;-82
2021/10/16 11:15:43;;;;;;;24.80;21.47;;;12.50;86.20;;;;;;5050253;28;20290;-84
2021/10/16 11:18:10;;;;;;;28.67;22.30;;;12.50;86.10;;;;;;5049911;28;20287;-86
2021/10/16 11:20:37;;;;;;;23.53;20.10;;;12.50;86.50;;;;;;5049316;28;20215;-85
2021/10/16 11:23:04;;;;;;;21.73;19.43;;;12.50;86.50;;;;;;5048745;28;20754;-85
2021/10/16 11:25:32;;;;;;;23.80;21.03;;;12.50;86.70;;;;;;5034005;28;20196;-85
2021/10/16 11:28:07;;;;;;;26.83;22.87;;;12.70;86.00;;;;;;5057749;28;20211;-85
2021/10/16 11:30:41;;;;;;;24.17;21.57;;;12.80;85.50;;;;;;5050776;28;20284;-82
2021/10/16 11:33:11;;;;;;;23.30;20.17;;;12.80;85.60;;;;;;5068347;28;20218;-85
2021/10/16 11:35:41;;;;;;;22.93;20.50;;;12.90;85.00;;;;;;5048769;28;20206;-86
2021/10/16 11:38:09;;;;;;;23.27;20.80;;;13.10;84.70;;;;;;5049458;28;20177;-88
2021/10/16 11:40:36;;;;;;;24.93;21.70;;;13.10;84.20;;;;;;5029075;28;20195;-87
2021/10/16 11:43:09;;;;;;;24.87;22.27;;;12.90;85.10;;;;;;5019194;28;20211;-87
2021/10/16 11:45:36;;;;;;;22.23;19.47;;;13.00;84.90;;;;;;5052586;28;20271;-85
2021/10/16 11:48:08;;;;;;;23.97;21.07;;;13.10;84.50;;;;;;5049707;28;20267;-88
2021/10/16 11:50:36;;;;;;;21.23;19.03;;;13.20;84.80;;;;;;5019884;28;20239;-89
2021/10/16 11:53:05;;;;;;;22.20;19.80;;;13.20;83.90;;;;;;5051969;28;20213;-86
2021/10/16 11:55:31;;;;;;;24.90;22.17;;;13.20;84.10;;;;;;5050064;28;20188;-86
2021/10/16 11:58:08;;;;;;;24.13;21.57;;;13.20;84.20;;;;;;5054378;28;20533;-85
2021/10/16 12:00:35;;;;;;;25.37;21.47;;;13.10;84.80;;;;;;5072171;28;20180;-84
2021/10/16 12:03:26;;;;;;;25.27;21.63;;;13.10;83.90;;;;;;5058045;28;20215;-88
2021/10/16 12:05:55;;;;;;;23.27;20.70;;;13.00;84.90;;;;;;5045617;28;20204;-88
2021/10/16 12:08:30;;;;;;;27.03;23.63;;;12.90;85.30;;;;;;5047708;28;20658;-88
2021/10/16 12:11:00;;;;;;;23.90;21.40;;;13.10;85.00;;;;;;5056106;28;20183;-88
2021/10/16 12:13:29;;;;;;;24.73;21.97;;;13.20;84.20;;;;;;5047118;28;20232;-88
2021/10/16 12:15:55;;;;;;;22.97;20.43;;;13.20;84.60;;;;;;5046588;28;20184;-88
2021/10/16 12:18:29;;;;;;;24.03;20.47;;;13.20;83.90;;;;;;5014362;28;20187;-88
2021/10/16 12:21:00;;;;;;;23.80;20.97;;;13.10;83.90;;;;;;5048033;28;20187;-89
2021/10/16 12:23:47;;;;;;;23.23;20.40;;;13.20;84.20;;;;;;5047042;28;20290;-89
2021/10/16 12:26:27;;;;;;;29.70;23.77;;;13.30;84.30;;;;;;5046099;28;20219;-89
2021/10/16 12:28:53;;;;;;;25.97;21.10;;;13.40;83.10;;;;;;5048050;28;20211;-88
2021/10/16 12:31:20;;;;;;;23.23;20.73;;;13.50;83.20;;;;;;5028427;28;20196;-88
2021/10/16 12:34:14;;;;;;;24.63;21.80;;;13.40;82.90;;;;;;5046745;28;20279;-89